Time;durP1;ratioP1;P1;durP2;ratioP2;P2;SDS_P1;SDS_P2;PMS_P1;PMS_P2;Temp;Humidity;BMP_temperature;BMP_pressure;BME280_temperature;BME280_humidity;BME280_pressure;Samples;Min_cycle;Max_cycle;Signal;HPM_P1;HPM_P2
2024/01/04 00:01:20;;;;;;;;;;;;;;;15.34;47.73;98911.03;5054674;28;20578;-85
2024/01/04 00:03:45;;;;;;;;;;;;;;;15.37;47.78;98918.47;5061991;28;19916;-87
2024/01/04 00:06:10;;;;;;;;;;;;;;;15.37;47.62;98915.78;5063197;28;20701;-88
2024/01/04 00:08:36;;;;;;;;;;;;;;;15.38;47.71;98919.28;5063602;28;19925;-87
2024/01/04 00:11:07;;;;;;;;;;;;;;;15.39;47.78;98916.25;5060732;28;19924;-87
2024/01/04 00:13:33;;;;;;;;;;;;;;;15.40;47.73;98925.13;5063964;28;20676;-87
2024/01/04 00:15:58;;;;;;;;;;;;;;;15.41;47.48;98924.81;5057387;28;19924;-87
2024/01/04 00:18:24;;;;;;;;;;;;;;;15.43;47.62;98922.56;5058430;28;20093;-87
2024/01/04 00:20:49;;;;;;;;;;;;;;;15.38;47.46;98917.38;5062731;28;20563;-87
2024/01/04 00:23:14;;;;;;;;;;;;;;;15.41;47.50;98926.72;5061622;28;19925;-86
2024/01/04 00:25:40;;;;;;;;;;;;;;;15.38;47.43;98916.56;5065345;28;19921;-87
2024/01/04 00:28:05;;;;;;;;;;;;;;;15.33;47.56;98931.03;5065194;28;19916;-86
2024/01/04 00:30:30;;;;;;;;;;;;;;;15.30;47.80;98926.28;5053883;28;19920;-86
2024/01/04 00:32:55;;;;;;;;;;;;;;;15.33;47.79;98928.34;5055867;28;19942;-87
2024/01/04 00:35:22;;;;;;;;;;;;;;;15.41;47.53;98926.72;5059681;28;19925;-87
2024/01/04 00:37:47;;;;;;;;;;;;;;;15.35;47.64;98928.00;5061366;28;19927;-87
2024/01/04 00:40:12;;;;;;;;;;;;;;;15.36;47.67;98925.00;5057099;28;20339;-87
2024/01/04 00:42:38;;;;;;;;;;;;;;;15.41;47.53;98929.41;5062405;28;19948;-86
2024/01/04 00:45:04;;;;;;;;;;;;;;;15.40;47.54;98927.84;5057316;28;20395;-86
2024/01/04 00:47:29;;;;;;;;;;;;;;;15.40;47.58;98923.22;5060769;28;20407;-86
2024/01/04 00:49:54;;;;;;;;;;;;;;;15.39;47.22;98929.75;5059209;28;20735;-87
2024/01/04 00:52:19;;;;;;;;;;;;;;;15.37;47.23;98925.78;5062186;28;19924;-86
2024/01/04 00:54:45;;;;;;;;;;;;;;;15.32;47.46;98929.47;5065439;28;19917;-87
2024/01/04 00:57:10;;;;;;;;;;;;;;;15.35;47.43;98933.41;5057713;28;20016;-86
2024/01/04 00:59:35;;;;;;;;;;;;;;;15.32;47.47;98926.75;5060494;28;19977;-87
2024/01/04 01:02:00;;;;;;;;;;;;;;;15.29;47.57;98929.31;5059077;28;20383;-86
2024/01/04 01:04:26;;;;;;;;;;;;;;;15.29;47.84;98923.94;5059644;28;19917;-87
2024/01/04 01:06:51;;;;;;;;;;;;;;;15.33;47.60;98931.03;5061183;28;19927;-87
2024/01/04 01:09:16;;;;;;;;;;;;;;;15.33;47.69;98927.56;5063364;28;19920;-86
2024/01/04 01:11:41;;;;;;;;;;;;;;;15.34;47.71;98927.22;5062219;28;20487;-87
2024/01/04 01:14:07;;;;;;;;;;;;;;;15.36;47.41;98925.00;5058144;28;19917;-87
2024/01/04 01:16:33;;;;;;;;;;;;;;;15.31;47.48;98927.09;5062425;28;19932;-88
2024/01/04 01:18:58;;;;;;;;;;;;;;;15.31;47.44;98938.66;5058309;28;20387;-86
2024/01/04 01:21:23;;;;;;;;;;;;;;;15.25;47.59;98931.84;5054449;28;19927;-87
2024/01/04 01:23:48;;;;;;;;;;;;;;;15.22;47.82;98942.50;5062647;28;19976;-87
2024/01/04 01:26:14;;;;;;;;;;;;;;;15.23;47.76;98933.28;5061820;28;19920;-88
2024/01/04 01:28:39;;;;;;;;;;;;;;;15.21;47.71;98944.41;5055019;28;20558;-87
2024/01/04 01:31:04;;;;;;;;;;;;;;;15.22;47.78;98942.50;5056008;28;19928;-86
2024/01/04 01:33:30;;;;;;;;;;;;;;;15.22;47.63;98939.81;5055458;28;19927;-87
2024/01/04 01:35:55;;;;;;;;;;;;;;;15.21;47.70;98943.63;5064203;28;20419;-87
2024/01/04 01:38:20;;;;;;;;;;;;;;;15.18;47.63;98938.88;5059712;28;19928;-87
2024/01/04 01:40:45;;;;;;;;;;;;;;;15.15;47.79;98936.81;5056738;28;20289;-86
2024/01/04 01:43:11;;;;;;;;;;;;;;;15.18;47.65;98938.88;5059377;28;19975;-87
2024/01/04 01:45:37;;;;;;;;;;;;;;;15.13;47.78;98941.75;5058427;28;20778;-87
2024/01/04 01:48:04;;;;;;;;;;;;;;;15.13;47.82;98942.53;5059419;28;19924;-85
2024/01/04 01:50:31;;;;;;;;;;;;;;;15.12;47.69;98943.66;5055835;28;19928;-86
2024/01/04 01:52:56;;;;;;;;;;;;;;;15.15;47.78;98950.31;5055441;28;19920;-87
2024/01/04 01:55:22;;;;;;;;;;;;;;;15.12;47.83;98949.03;5056293;28;20660;-86
2024/01/04 01:57:47;;;;;;;;;;;;;;;15.10;47.88;98948.59;5057691;28;19991;-87
2024/01/04 02:00:13;;;;;;;;;;;;;;;15.08;47.78;98948.09;5062504;28;20448;-87
2024/01/04 02:02:38;;;;;;;;;;;;;;;15.08;47.91;98948.91;5055825;28;19917;-86
2024/01/04 02:05:04;;;;;;;;;;;;;;;15.03;48.14;98943.66;5051152;28;19924;-86
2024/01/04 02:07:30;;;;;;;;;;;;;;;15.13;47.91;98956.03;5061059;28;19920;-87
2024/01/04 02:09:55;;;;;;;;;;;;;;;15.15;47.86;98950.31;5059811;28;19917;-87
2024/01/04 02:12:21;;;;;;;;;;;;;;;15.09;47.93;98949.69;5062976;28;19925;-86
2024/01/04 02:14:51;;;;;;;;;;;;;;;15.09;48.03;98953.19;5058365;28;19928;-87
2024/01/04 02:17:17;;;;;;;;;;;;;;;15.11;48.08;98958.25;5059375;28;19920;-87
2024/01/04 02:19:42;;;;;;;;;;;;;;;15.10;48.02;98965.56;5063654;28;19923;-87
2024/01/04 02:22:08;;;;;;;;;;;;;;;15.12;47.94;98959.84;5055134;28;19943;-86
2024/01/04 02:24:33;;;;;;;;;;;;;;;15.15;47.91;98961.88;5055671;28;19924;-86
2024/01/04 02:26:58;;;;;;;;;;;;;;;15.16;47.89;98957.28;5060956;28;19917;-87
2024/01/04 02:29:24;;;;;;;;;;;;;;;15.12;48.16;98959.84;5062017;28;20017;-87
2024/01/04 02:31:49;;;;;;;;;;;;;;;15.11;47.92;98959.03;5067378;28;20288;-87
2024/01/04 02:34:14;;;;;;;;;;;;;;;15.14;48.06;98963.00;5058622;28;21301;-87
2024/01/04 02:36:40;;;;;;;;;;;;;;;15.11;48.28;98956.34;5069504;28;19924;-87
2024/01/04 02:39:05;;;;;;;;;;;;;;;15.18;47.93;98958.53;5062248;28;19920;-87
2024/01/04 02:41:30;;;;;;;;;;;;;;;15.10;47.99;98960.16;5060911;28;19955;-87
2024/01/04 02:43:56;;;;;;;;;;;;;;;15.03;48.21;98949.06;5058574;28;19920;-87
2024/01/04 02:46:21;;;;;;;;;;;;;;;15.01;48.36;98961.28;5061907;28;19925;-87
2024/01/04 02:48:46;;;;;;;;;;;;;;;14.93;48.59;98962.09;5065774;28;19916;-87
2024/01/04 02:51:11;;;;;;;;;;;;;;;14.91;48.70;98958.94;5062883;28;19932;-87
2024/01/04 02:53:37;;;;;;;;;;;;;;;14.90;48.41;98960.00;5064537;28;20369;-87
2024/01/04 02:56:03;;;;;;;;;;;;;;;14.90;48.41;98955.44;5062762;28;19927;-88
2024/01/04 02:58:28;;;;;;;;;;;;;;;14.91;48.50;98956.25;5063250;28;19921;-87
2024/01/04 03:00:53;;;;;;;;;;;;;;;14.93;48.26;98957.50;5058534;28;19916;-86
2024/01/04 03:03:19;;;;;;;;;;;;;;;14.84;48.67;98950.53;5060970;28;19924;-86
2024/01/04 03:05:44;;;;;;;;;;;;;;;14.87;48.48;98958.75;5063096;28;20388;-87
2024/01/04 03:08:09;;;;;;;;;;;;;;;14.91;48.34;98948.94;5058857;28;20500;-86
2024/01/04 03:10:35;;;;;;;;;;;;;;;14.91;48.46;98958.94;5063362;28;20002;-86
2024/01/04 03:13:00;;;;;;;;;;;;;;;14.88;48.50;98948.75;5064742;28;20194;-87
2024/01/04 03:15:26;;;;;;;;;;;;;;;14.89;48.29;98947.66;5067055;28;20371;-88
2024/01/04 03:17:51;;;;;;;;;;;;;;;14.90;48.50;98947.34;5065518;28;19955;-87
2024/01/04 03:20:16;;;;;;;;;;;;;;;14.92;48.44;98952.44;5057052;28;20268;-86
2024/01/04 03:22:41;;;;;;;;;;;;;;;14.94;48.46;98948.28;5062206;28;19932;-87
2024/01/04 03:25:09;;;;;;;;;;;;;;;15.01;48.26;98953.97;5061349;28;19968;-87
2024/01/04 03:27:34;;;;;;;;;;;;;;;15.01;48.25;98947.78;5061393;28;20021;-86
2024/01/04 03:30:00;;;;;;;;;;;;;;;14.96;48.35;98953.38;5059365;28;19954;-87
2024/01/04 03:32:25;;;;;;;;;;;;;;;14.95;48.37;98954.47;5060372;28;20015;-87
2024/01/04 03:34:50;;;;;;;;;;;;;;;14.92;48.35;98953.22;5061512;28;20355;-87
2024/01/04 03:37:16;;;;;;;;;;;;;;;14.95;48.45;98957.19;5059897;28;19927;-85
2024/01/04 03:39:41;;;;;;;;;;;;;;;14.95;48.38;98955.28;5065817;28;20400;-86
2024/01/04 03:42:06;;;;;;;;;;;;;;;14.95;48.49;98955.28;5059193;28;19975;-87
2024/01/04 03:44:31;;;;;;;;;;;;;;;15.03;48.15;98956.34;5063547;28;20299;-87
2024/01/04 03:46:57;;;;;;;;;;;;;;;15.00;48.32;98955.09;5060228;28;19916;-88
2024/01/04 03:49:22;;;;;;;;;;;;;;;15.02;48.24;98957.47;5063614;28;20814;-87
2024/01/04 03:51:47;;;;;;;;;;;;;;;14.99;48.21;98964.28;5061206;28;20565;-87
2024/01/04 03:54:12;;;;;;;;;;;;;;;14.96;48.32;98961.44;5059419;28;19921;-86
2024/01/04 03:56:38;;;;;;;;;;;;;;;14.92;48.37;98950.53;5060060;28;19920;-88
2024/01/04 03:59:03;;;;;;;;;;;;;;;14.93;48.44;98957.50;5065354;28;20611;-87
2024/01/04 04:01:28;;;;;;;;;;;;;;;14.90;48.41;98960.00;5060402;28;19920;-86
2024/01/04 04:03:54;;;;;;;;;;;;;;;14.87;48.18;98957.97;5060467;28;20438;-87
2024/01/04 04:06:20;;;;;;;;;;;;;;;14.86;48.40;98953.69;5054655;28;19960;-88
2024/01/04 04:08:45;;;;;;;;;;;;;;;14.88;48.52;98959.53;5062514;28;19962;-87
2024/01/04 04:11:17;;;;;;;;;;;;;;;14.89;48.53;98961.91;5057407;28;19928;-87
2024/01/04 04:13:42;;;;;;;;;;;;;;;14.85;48.63;98958.28;5060048;28;19916;-86
2024/01/04 04:16:08;;;;;;;;;;;;;;;14.80;48.72;98959.25;5060292;28;19999;-87
2024/01/04 04:18:33;;;;;;;;;;;;;;;14.80;48.80;98961.94;5063295;28;20461;-87
2024/01/04 04:20:58;;;;;;;;;;;;;;;14.83;48.82;98957.81;5064061;28;19912;-87
2024/01/04 04:23:24;;;;;;;;;;;;;;;14.84;48.68;98964.00;5062530;28;19987;-88
2024/01/04 04:25:49;;;;;;;;;;;;;;;14.79;48.73;98963.06;5058924;28;20738;-87
2024/01/04 04:28:14;;;;;;;;;;;;;;;14.73;48.94;98972.44;5054773;28;19970;-87
2024/01/04 04:30:39;;;;;;;;;;;;;;;14.75;49.07;98964.81;5064107;28;19920;-87
2024/01/04 04:33:05;;;;;;;;;;;;;;;14.74;48.83;98965.13;5061865;28;20300;-87
2024/01/04 04:35:30;;;;;;;;;;;;;;;14.70;49.06;98970.34;5062309;28;19921;-86
2024/01/04 04:37:55;;;;;;;;;;;;;;;14.70;48.97;98966.88;5053776;28;20379;-86
2024/01/04 04:40:20;;;;;;;;;;;;;;;14.60;49.25;98972.59;5055888;28;19983;-86
2024/01/04 04:42:46;;;;;;;;;;;;;;;14.58;49.29;98970.22;5058887;28;19970;-87
2024/01/04 04:45:11;;;;;;;;;;;;;;;14.63;49.25;98972.75;5058152;28;19955;-87
2024/01/04 04:47:37;;;;;;;;;;;;;;;14.68;49.20;98969.88;5058457;28;19917;-86
2024/01/04 04:50:03;;;;;;;;;;;;;;;14.67;49.28;98971.00;5056958;28;19916;-86
2024/01/04 04:52:29;;;;;;;;;;;;;;;14.68;49.14;98969.88;5059282;28;19916;-86
2024/01/04 04:54:55;;;;;;;;;;;;;;;14.65;49.13;98975.91;5062635;28;19934;-86
2024/01/04 04:57:20;;;;;;;;;;;;;;;14.59;49.33;98977.19;5064027;28;20735;-86
2024/01/04 04:59:45;;;;;;;;;;;;;;;14.56;49.56;98977.03;5063466;28;20543;-86
2024/01/04 05:02:11;;;;;;;;;;;;;;;14.59;49.37;98982.56;5054489;28;19944;-87
2024/01/04 05:04:36;;;;;;;;;;;;;;;14.58;49.47;98986.38;5059093;28;20410;-86
2024/01/04 05:07:01;;;;;;;;;;;;;;;14.59;49.54;98985.28;5061047;28;19924;-85
2024/01/04 05:09:27;;;;;;;;;;;;;;;14.55;49.69;98987.03;5056931;28;19916;-86
2024/01/04 05:11:52;;;;;;;;;;;;;;;14.58;49.53;98989.06;5052723;28;20396;-86
2024/01/04 05:14:17;;;;;;;;;;;;;;;14.55;49.70;98987.03;5054162;28;20278;-87
2024/01/04 05:16:44;;;;;;;;;;;;;;;14.52;49.79;98993.81;5057820;28;19931;-86
2024/01/04 05:19:12;;;;;;;;;;;;;;;14.53;49.94;98994.59;5057966;28;20605;-86
2024/01/04 05:21:37;;;;;;;;;;;;;;;14.57;49.77;99002.88;5056898;28;19924;-86
2024/01/04 05:24:03;;;;;;;;;;;;;;;14.54;49.91;99000.78;5058014;28;20001;-86
2024/01/04 05:26:28;;;;;;;;;;;;;;;14.55;49.85;98997.00;5059905;28;19921;-87
2024/01/04 05:28:54;;;;;;;;;;;;;;;14.54;50.00;99001.56;5055567;28;20327;-87
2024/01/04 05:31:19;;;;;;;;;;;;;;;14.50;49.86;98995.25;5059584;28;20007;-87
2024/01/04 05:33:45;;;;;;;;;;;;;;;14.48;49.90;99005.53;5058188;28;19952;-87
2024/01/04 05:36:11;;;;;;;;;;;;;;;14.43;50.03;99003.81;5062237;28;19940;-86
2024/01/04 05:38:36;;;;;;;;;;;;;;;14.40;50.41;99006.31;5063218;28;20581;-85
2024/01/04 05:41:02;;;;;;;;;;;;;;;14.41;50.42;99014.06;5059069;28;19927;-85
2024/01/04 05:43:29;;;;;;;;;;;;;;;14.37;50.13;99018.53;5057803;28;19931;-87
2024/01/04 05:45:54;;;;;;;;;;;;;;;14.34;50.47;99005.66;5055102;28;19920;-87
2024/01/04 05:48:20;;;;;;;;;;;;;;;14.35;50.38;99019.91;5054422;28;19925;-87
2024/01/04 05:50:45;;;;;;;;;;;;;;;14.32;50.56;99028.63;5055147;28;19917;-87
2024/01/04 05:53:10;;;;;;;;;;;;;;;14.32;50.60;99026.72;5056822;28;20419;-86
2024/01/04 05:55:35;;;;;;;;;;;;;;;14.39;50.59;99026.28;5059187;28;19916;-86
2024/01/04 05:58:01;;;;;;;;;;;;;;;14.39;50.42;99039.75;5055626;28;20414;-87
2024/01/04 06:00:26;;;;;;;;;;;;;;;14.36;50.36;99043.06;5056934;28;19925;-87
2024/01/04 06:02:52;;;;;;;;;;;;;;;14.30;50.66;99033.53;5058583;28;19963;-87
2024/01/04 06:05:17;;;;;;;;;;;;;;;14.36;50.71;99048.44;5052329;28;19916;-87
2024/01/04 06:07:42;;;;;;;;;;;;;;;14.37;50.75;99045.47;5063080;28;19927;-86
2024/01/04 06:10:08;;;;;;;;;;;;;;;14.37;50.83;99041.97;5063721;28;19927;-86
2024/01/04 06:12:33;;;;;;;;;;;;;;;14.38;50.56;99040.88;5058251;28;20385;-86
2024/01/04 06:14:58;;;;;;;;;;;;;;;14.38;50.93;99046.25;5059031;28;19920;-87
2024/01/04 06:17:23;;;;;;;;;;;;;;;14.40;50.82;99057.50;5064799;28;19929;-86
2024/01/04 06:19:49;;;;;;;;;;;;;;;14.42;50.65;99053.38;5054481;28;20407;-87
2024/01/04 06:22:14;;;;;;;;;;;;;;;14.41;50.66;99057.19;5057351;28;19928;-87
2024/01/04 06:24:39;;;;;;;;;;;;;;;14.41;50.74;99062.56;5056231;28;19924;-87
2024/01/04 06:27:04;;;;;;;;;;;;;;;14.41;50.87;99064.47;5055786;28;19927;-86
2024/01/04 06:29:31;;;;;;;;;;;;;;;14.47;50.91;99065.94;5062515;28;19928;-86
2024/01/04 06:31:56;;;;;;;;;;;;;;;14.49;50.73;99077.19;5058446;28;19924;-86
2024/01/04 06:34:22;;;;;;;;;;;;;;;14.49;50.43;99072.59;5059710;28;19970;-86
2024/01/04 06:36:48;;;;;;;;;;;;;;;14.44;50.60;99078.16;5056506;28;19924;-87
2024/01/04 06:39:13;;;;;;;;;;;;;;;14.46;50.51;99075.13;5052863;28;19917;-86
2024/01/04 06:41:43;;;;;;;;;;;;;;;14.43;50.60;99073.88;5058180;28;20015;-86
2024/01/04 06:44:08;;;;;;;;;;;;;;;14.44;50.54;99077.34;5060665;28;20008;-86
2024/01/04 06:46:33;;;;;;;;;;;;;;;14.47;50.36;99074.03;5057215;28;20020;-87
2024/01/04 06:48:58;;;;;;;;;;;;;;;14.44;50.10;99083.53;5057454;28;19925;-86
2024/01/04 06:51:24;;;;;;;;;;;;;;;14.37;50.02;99083.19;5057618;28;19931;-86
2024/01/04 06:53:50;;;;;;;;;;;;;;;14.35;50.06;99077.28;5054016;28;19968;-85
2024/01/04 06:56:18;;;;;;;;;;;;;;;14.35;50.00;99090.75;5058536;28;19956;-86
2024/01/04 06:58:43;;;;;;;;;;;;;;;14.30;50.01;99088.22;5058710;28;19960;-85
2024/01/04 07:01:08;;;;;;;;;;;;;;;14.30;49.90;99096.28;5054666;28;19979;-86
2024/01/04 07:03:34;;;;;;;;;;;;;;;14.27;50.12;99088.84;5055149;28;20318;-86
2024/01/04 07:05:59;;;;;;;;;;;;;;;14.32;49.96;99093.28;5056572;28;19924;-86
2024/01/04 07:08:24;;;;;;;;;;;;;;;14.35;49.95;99106.13;5056025;28;20003;-86
2024/01/04 07:10:49;;;;;;;;;;;;;;;14.36;49.69;99118.50;5059527;28;20346;-86
2024/01/04 07:13:15;;;;;;;;;;;;;;;14.31;50.03;99135.59;5058816;28;20339;-86
2024/01/04 07:15:40;;;;;;;;;;;;;;;14.30;49.68;99152.06;5060749;28;19917;-87
2024/01/04 07:18:06;;;;;;;;;;;;;;;14.19;49.27;99155.06;5062710;28;19924;-86
2024/01/04 07:20:33;;;;;;;;;;;;;;;14.04;49.56;99143.91;5061287;28;20003;-85
2024/01/04 07:22:58;;;;;;;;;;;;;;;13.92;49.44;99149.84;5059035;28;19921;-87
2024/01/04 07:25:23;;;;;;;;;;;;;;;13.85;49.37;99146.81;5061758;28;19924;-86
2024/01/04 07:27:49;;;;;;;;;;;;;;;13.76;49.42;99141.34;5060159;28;20003;-86
2024/01/04 07:30:14;;;;;;;;;;;;;;;13.67;49.43;99140.53;5061987;28;20024;-87
2024/01/04 07:32:39;;;;;;;;;;;;;;;13.65;49.07;99148.13;5066702;28;19921;-87
2024/01/04 07:35:05;;;;;;;;;;;;;;;13.63;48.82;99160.25;5063011;28;20051;-86
2024/01/04 07:37:31;;;;;;;;;;;;;;;13.53;48.83;99148.66;5060565;28;19921;-86
2024/01/04 07:39:56;;;;;;;;;;;;;;;13.46;48.65;99147.47;5061444;28;19916;-87
2024/01/04 07:42:22;;;;;;;;;;;;;;;13.44;48.48;99153.16;5060882;28;19927;-87
2024/01/04 07:44:47;;;;;;;;;;;;;;;13.32;48.66;99158.31;5064352;28;20011;-87
2024/01/04 07:47:13;;;;;;;;;;;;;;;13.24;48.95;99164.41;5062597;28;20011;-85
2024/01/04 07:49:38;;;;;;;;;;;;;;;13.27;48.71;99166.47;5061710;28;19921;-87
2024/01/04 07:52:03;;;;;;;;;;;;;;;13.23;48.70;99170.88;5060590;28;19971;-87
2024/01/04 07:54:29;;;;;;;;;;;;;;;13.20;48.74;99166.91;5062170;28;20297;-86
2024/01/04 07:56:54;;;;;;;;;;;;;;;13.22;48.59;99170.09;5065148;28;20002;-86
2024/01/04 07:59:21;;;;;;;;;;;;;;;13.20;48.52;99174.19;5063783;28;19925;-87
2024/01/04 08:01:47;;;;;;;;;;;;;;;13.18;48.52;99176.38;5062989;28;19916;-86
2024/01/04 08:04:12;;;;;;;;;;;;;;;13.14;48.41;99178.06;5059963;28;19917;-87
2024/01/04 08:06:37;;;;;;;;;;;;;;;13.09;48.50;99178.16;5065881;28;20024;-87
2024/01/04 08:09:03;;;;;;;;;;;;;;;13.10;48.10;99183.22;5063866;28;20288;-87
2024/01/04 08:11:28;;;;;;;;;;;;;;;13.09;48.46;99192.38;5060259;28;19917;-87
2024/01/04 08:13:53;;;;;;;;;;;;;;;13.09;48.34;99199.66;5059354;28;19917;-87
2024/01/04 08:16:19;;;;;;;;;;;;;;;13.06;48.38;99198.38;5060330;28;20447;-87
2024/01/04 08:18:44;;;;;;;;;;;;;;;13.09;47.42;99199.66;5064571;28;19928;-86
2024/01/04 08:21:10;;;;;;;;;;;;;;;13.02;47.73;99200.09;5058185;28;20047;-86
2024/01/04 08:23:35;;;;;;;;;;;;;;;12.96;47.99;99207.47;5063035;28;20001;-86
2024/01/04 08:26:04;;;;;;;;;;;;;;;12.99;47.86;99204.19;5061361;28;19916;-86
2024/01/04 08:28:29;;;;;;;;;;;;;;;13.01;47.61;99203.88;5057370;28;19998;-87
2024/01/04 08:30:55;;;;;;;;;;;;;;;12.97;47.64;99213.66;5058523;28;20385;-86
2024/01/04 08:33:20;;;;;;;;;;;;;;;12.92;47.59;99221.78;5059249;28;19931;-86
2024/01/04 08:35:45;;;;;;;;;;;;;;;12.84;48.09;99223.31;5056520;28;20440;-86
2024/01/04 08:38:10;;;;;;;;;;;;;;;12.88;48.28;99232.34;5061907;28;19928;-86
2024/01/04 08:40:38;;;;;;;;;;;;;;;12.83;48.15;99221.72;5062002;28;21663;-87
2024/01/04 08:43:04;;;;;;;;;;;;;;;12.81;48.28;99225.81;5060272;28;19920;-86
2024/01/04 08:45:29;;;;;;;;;;;;;;;12.78;48.13;99229.09;5061257;28;19963;-86
2024/01/04 08:47:54;;;;;;;;;;;;;;;12.69;48.33;99227.09;5064459;28;20291;-86
2024/01/04 08:50:20;;;;;;;;;;;;;;;12.70;48.29;99233.25;5060144;28;19925;-87
2024/01/04 08:52:46;;;;;;;;;;;;;;;12.68;48.61;99222.00;5063914;28;19990;-85
2024/01/04 08:55:11;;;;;;;;;;;;;;;12.68;48.74;99230.88;5053706;28;19932;-87
2024/01/04 08:57:36;;;;;;;;;;;;;;;12.71;48.40;99229.47;5062414;28;20039;-84
2024/01/04 09:00:04;;;;;;;;;;;;;;;12.69;48.58;99234.34;5056776;28;20430;-86
2024/01/04 09:02:29;;;;;;;;;;;;;;;12.72;48.59;99239.13;5059984;28;19966;-86
2024/01/04 09:04:55;;;;;;;;;;;;;;;12.76;48.61;99245.53;5060638;28;19920;-86
2024/01/04 09:07:20;;;;;;;;;;;;;;;12.79;48.63;99254.88;5058630;28;19928;-86
2024/01/04 09:09:45;;;;;;;;;;;;;;;12.80;48.25;99256.47;5057300;28;19965;-85
2024/01/04 09:12:11;;;;;;;;;;;;;;;12.75;48.15;99265.44;5056236;28;19925;-86
2024/01/04 09:14:36;;;;;;;;;;;;;;;12.75;48.04;99270.81;5063128;28;19920;-86
2024/01/04 09:17:02;;;;;;;;;;;;;;;12.60;48.08;99289.88;5063199;28;19928;-86
2024/01/04 09:19:27;;;;;;;;;;;;;;;12.52;48.16;99287.88;5058085;28;19925;-87
2024/01/04 09:21:52;;;;;;;;;;;;;;;12.45;48.45;99282.09;5054262;28;19920;-86
2024/01/04 09:24:18;;;;;;;;;;;;;;;12.36;48.27;99284.66;5059935;28;20352;-85
2024/01/04 09:26:44;;;;;;;;;;;;;;;12.29;48.04;99287.72;5056981;28;20011;-86
2024/01/04 09:29:10;;;;;;;;;;;;;;;12.20;48.10;99291.38;5059240;28;20498;-87
2024/01/04 09:31:36;;;;;;;;;;;;;;;12.15;47.98;99289.56;5054321;28;19979;-86
2024/01/04 09:34:02;;;;;;;;;;;;;;;12.08;47.77;99298.00;5060249;28;19920;-87
2024/01/04 09:36:27;;;;;;;;;;;;;;;12.09;48.42;99296.91;5059243;28;19943;-87
2024/01/04 09:38:52;;;;;;;;;;;;;;;12.12;48.09;99306.28;5058338;28;19931;-86
2024/01/04 09:41:29;;;;;;;;;;;;;;;12.09;48.00;99304.97;5050779;28;20444;-86
2024/01/04 09:43:55;;;;;;;;;;;;;;;12.07;47.92;99301.78;5054216;28;20007;-86
2024/01/04 09:46:23;;;;;;;;;;;;;;;12.04;47.76;99307.75;5061059;28;19932;-86
2024/01/04 09:48:55;;;;;;;;;;;;;;;12.08;47.81;99302.59;5057570;28;19924;-86
2024/01/04 09:51:20;;;;;;;;;;;;;;;12.01;47.76;99308.31;5053965;28;19932;-86
2024/01/04 09:53:46;;;;;;;;;;;;;;;12.01;47.61;99318.25;5055621;28;19921;-86
2024/01/04 09:56:14;;;;;;;;;;;;;;;11.99;47.90;99315.06;5052436;28;20032;-86
2024/01/04 09:58:39;;;;;;;;;;;;;;;11.95;47.70;99317.53;5058855;28;19986;-86
2024/01/04 10:01:06;;;;;;;;;;;;;;;11.99;47.83;99333.84;5056158;28;19924;-86
2024/01/04 10:03:31;;;;;;;;;;;;;;;11.92;47.56;99336.13;5053897;28;19920;-87
2024/01/04 10:05:58;;;;;;;;;;;;;;;11.83;47.38;99338.63;5060993;28;19920;-86
2024/01/04 10:08:27;;;;;;;;;;;;;;;11.68;47.51;99345.00;5052525;28;19982;-86
2024/01/04 10:10:55;;;;;;;;;;;;;;;11.65;48.01;99350.13;5060108;28;19928;-86
2024/01/04 10:13:21;;;;;;;;;;;;;;;11.64;47.75;99346.66;5055150;28;20069;-86
2024/01/04 10:15:48;;;;;;;;;;;;;;;11.57;47.93;99356.94;5058227;28;20467;-86
2024/01/04 10:18:13;;;;;;;;;;;;;;;11.52;47.46;99362.38;5059026;28;19931;-86
2024/01/04 10:20:38;;;;;;;;;;;;;;;11.48;47.50;99366.72;5052931;28;19920;-86
2024/01/04 10:23:04;;;;;;;;;;;;;;;11.40;47.79;99367.34;5052079;28;19924;-86
2024/01/04 10:25:29;;;;;;;;;;;;;;;11.39;48.03;99369.25;5051654;28;19929;-86
2024/01/04 10:27:58;;;;;;;;;;;;;;;11.42;47.86;99378.59;5057013;28;20007;-85
2024/01/04 10:30:24;;;;;;;;;;;;;;;11.43;47.79;99372.94;5056403;28;20399;-86
2024/01/04 10:32:50;;;;;;;;;;;;;;;11.42;47.65;99383.97;5055482;28;19917;-85
2024/01/04 10:35:15;;;;;;;;;;;;;;;11.45;47.19;99383.38;5057788;28;19970;-85
2024/01/04 10:37:40;;;;;;;;;;;;;;;11.36;47.29;99387.78;5057999;28;19929;-86
2024/01/04 10:40:09;;;;;;;;;;;;;;;11.30;47.35;99395.06;5051711;28;20267;-86
2024/01/04 10:42:34;;;;;;;;;;;;;;;11.25;47.44;99394.34;5060738;28;19920;-85
2024/01/04 10:45:00;;;;;;;;;;;;;;;11.18;47.11;99405.41;5053358;28;19926;-87
2024/01/04 10:47:25;;;;;;;;;;;;;;;11.08;47.55;99400.16;5057427;28;19921;-86
2024/01/04 10:49:56;;;;;;;;;;;;;;;11.02;47.49;99406.66;5065503;28;19963;-85
2024/01/04 10:52:26;;;;;;;;;;;;;;;10.93;47.69;99409.13;5059903;28;19929;-85
2024/01/04 10:54:51;;;;;;;;;;;;;;;10.95;47.95;99411.53;5059141;28;19924;-86
2024/01/04 10:57:18;;;;;;;;;;;;;;;10.88;47.80;99409.19;5058252;28;19925;-86
2024/01/04 10:59:44;;;;;;;;;;;;;;;10.88;47.66;99419.91;5060413;28;19920;-85
2024/01/04 11:02:10;;;;;;;;;;;;;;;10.90;47.73;99418.53;5059744;28;19929;-86
2024/01/04 11:04:36;;;;;;;;;;;;;;;10.89;47.68;99424.97;5056115;28;19921;-86
2024/01/04 11:07:02;;;;;;;;;;;;;;;10.92;47.99;99425.50;5059800;28;19924;-85
2024/01/04 11:09:28;;;;;;;;;;;;;;;10.91;47.51;99435.41;5054050;28;19967;-85
2024/01/04 11:11:54;;;;;;;;;;;;;;;10.85;47.65;99428.50;5056204;28;19924;-86
2024/01/04 11:14:23;;;;;;;;;;;;;;;10.80;47.98;99434.72;5059715;28;19928;-85
2024/01/04 11:17:03;;;;;;;;;;;;;;;10.76;47.87;99440.91;5056514;28;19920;-83
2024/01/04 11:19:44;;;;;;;;;;;;;;;10.70;47.94;99432.13;5059389;28;19924;-85
2024/01/04 11:22:26;;;;;;;;;;;;;;;10.68;48.13;99436.16;5054331;28;19917;-85
2024/01/04 11:25:03;;;;;;;;;;;;;;;10.70;48.27;99450.06;5087895;27;19921;-85
2024/01/04 11:27:29;;;;;;;;;;;;;;;10.73;48.13;99444.16;5055119;28;19924;-85
2024/01/04 11:29:55;;;;;;;;;;;;;;;10.70;47.98;99442.84;5057389;28;20408;-85
2024/01/04 11:32:20;;;;;;;;;;;;;;;10.69;47.94;99449.28;5052576;28;20011;-85
2024/01/04 11:34:46;;;;;;;;;;;;;;;10.58;48.08;99453.91;5056097;28;19916;-85
2024/01/04 11:37:16;;;;;;;;;;;;;;;10.54;48.43;99452.06;5056390;28;20312;-84
2024/01/04 11:40:10;;;;;;;;;;;;;;;10.48;48.47;99456.66;5059446;28;19928;-85
2024/01/04 11:42:37;;;;;;;;;;;;;;;10.48;48.38;99458.53;5045248;28;19943;-85
2024/01/04 11:45:04;;;;;;;;;;;;;;;10.48;47.99;99463.91;5057208;28;19959;-85
2024/01/04 11:47:34;;;;;;;;;;;;;;;10.42;48.16;99465.03;5055017;28;19963;-86
2024/01/04 11:49:59;;;;;;;;;;;;;;;10.33;48.53;99474.69;5055434;28;20042;-85
2024/01/04 11:52:28;;;;;;;;;;;;;;;10.33;48.26;99475.50;5055293;28;20684;-85
2024/01/04 11:54:54;;;;;;;;;;;;;;;10.31;48.41;99480.34;5056622;28;20403;-84
2024/01/04 11:57:21;;;;;;;;;;;;;;;10.29;48.44;99479.81;5056733;28;19925;-85
2024/01/04 11:59:46;;;;;;;;;;;;;;;10.32;48.35;99479.25;5059024;28;19925;-84
2024/01/04 12:02:19;;;;;;;;;;;;;;;10.34;48.69;99487.00;5055015;28;19931;-84
2024/01/04 12:04:44;;;;;;;;;;;;;;;10.32;48.54;99486.50;5054358;28;20396;-85
2024/01/04 12:07:10;;;;;;;;;;;;;;;10.29;48.62;99490.53;5053787;28;19971;-85
2024/01/04 12:09:37;;;;;;;;;;;;;;;10.24;48.84;99487.88;5059105;28;19920;-85
2024/01/04 12:12:02;;;;;;;;;;;;;;;10.24;48.23;99495.91;5057766;28;19926;-84
2024/01/04 12:14:27;;;;;;;;;;;;;;;10.23;48.42;99489.75;5054845;28;19920;-84
2024/01/04 12:16:53;;;;;;;;;;;;;;;10.24;48.58;99501.25;5054764;28;20447;-85
2024/01/04 12:19:18;;;;;;;;;;;;;;;10.24;48.64;99506.63;5052351;28;19943;-85
2024/01/04 12:21:45;;;;;;;;;;;;;;;10.24;48.80;99511.97;5053444;28;19924;-85
2024/01/04 12:24:11;;;;;;;;;;;;;;;10.31;48.68;99508.97;5051444;28;20487;-84
2024/01/04 12:26:36;;;;;;;;;;;;;;;10.25;48.68;99518.94;5052952;28;20015;-85
2024/01/04 12:29:02;;;;;;;;;;;;;;;10.23;48.72;99521.06;5054636;28;19921;-86
2024/01/04 12:31:27;;;;;;;;;;;;;;;10.22;48.94;99524.81;5051327;28;19965;-85
2024/01/04 12:33:53;;;;;;;;;;;;;;;10.26;48.61;99533.91;5053281;28;19916;-84
2024/01/04 12:36:22;;;;;;;;;;;;;;;10.17;48.56;99541.66;5055583;28;19917;-84
2024/01/04 12:38:52;;;;;;;;;;;;;;;10.15;49.16;99541.16;5052081;28;19928;-85
2024/01/04 12:41:28;;;;;;;;;;;;;;;10.16;49.30;99558.81;5051983;28;19966;-85